createdAt,value
2019-02-07T00:00:36.138Z,57.01
2019-02-07T00:03:02.985Z,56.58
2019-02-07T00:05:29.764Z,56.61
2019-02-07T00:07:56.550Z,56.90
2019-02-07T00:10:23.475Z,57.11
2019-02-07T00:12:50.260Z,57.31
2019-02-07T00:15:17.035Z,57.14
2019-02-07T00:17:43.903Z,57.32
2019-02-07T00:20:17.329Z,57.53
2019-02-07T00:22:44.127Z,57.32
2019-02-07T00:25:11.069Z,57.14
2019-02-07T00:27:37.850Z,56.79
2019-02-07T00:30:10.059Z,56.67
2019-02-07T00:32:36.986Z,56.88
2019-02-07T00:35:07.282Z,56.90
2019-02-07T00:37:34.079Z,56.64
2019-02-07T00:40:01.003Z,56.92
2019-02-07T00:42:27.805Z,56.49
2019-02-07T00:44:54.599Z,56.27
2019-02-07T00:47:21.825Z,56.27
2019-02-07T00:49:48.598Z,56.55
2019-02-07T00:52:15.391Z,56.61
2019-02-07T00:54:42.313Z,56.56
2019-02-07T00:57:12.798Z,56.24
2019-02-07T00:59:39.573Z,55.99
2019-02-07T01:02:06.489Z,55.92
2019-02-07T01:04:33.560Z,55.98
2019-02-07T01:07:00.343Z,56.54
2019-02-07T01:09:27.268Z,56.81
2019-02-07T01:11:54.049Z,56.44
2019-02-07T01:14:20.825Z,56.53
2019-02-07T01:16:47.758Z,56.55
2019-02-07T01:19:14.536Z,56.62
2019-02-07T01:21:41.312Z,56.44
2019-02-07T01:24:08.251Z,56.39
2019-02-07T01:26:35.030Z,56.32
2019-02-07T01:29:01.798Z,56.52
2019-02-07T01:31:28.706Z,56.46
2019-02-07T01:33:55.487Z,56.25
2019-02-07T01:36:22.268Z,56.44
2019-02-07T01:38:49.302Z,56.50
2019-02-07T01:41:16.368Z,56.94
2019-02-07T01:43:43.143Z,56.99
2019-02-07T01:46:10.000Z,57.18
2019-02-07T01:48:36.786Z,57.09
2019-02-07T01:51:03.578Z,56.73
2019-02-07T01:53:30.508Z,56.55
2019-02-07T01:55:57.297Z,56.49
2019-02-07T01:58:24.105Z,56.23
2019-02-07T02:00:51.436Z,56.15
2019-02-07T02:03:18.229Z,55.92
2019-02-07T02:05:45.002Z,55.87
2019-02-07T02:08:11.936Z,55.87
2019-02-07T02:10:38.721Z,56.21
2019-02-07T02:13:05.516Z,55.93
2019-02-07T02:15:32.450Z,55.73
2019-02-07T02:17:59.234Z,55.75
2019-02-07T02:20:26.037Z,55.82
2019-02-07T02:22:54.347Z,56.14
2019-02-07T02:25:21.145Z,56.10
2019-02-07T02:27:47.935Z,56.16
2019-02-07T02:30:34.091Z,55.78
2019-02-07T02:33:01.179Z,55.95
2019-02-07T02:35:27.965Z,56.13
2019-02-07T02:37:54.873Z,56.24
2019-02-07T02:40:21.651Z,55.93
2019-02-07T02:42:48.457Z,56.02
2019-02-07T02:45:20.690Z,56.39
2019-02-07T02:47:47.778Z,56.69
2019-02-07T02:50:17.158Z,56.69
2019-02-07T02:52:44.085Z,56.76
2019-02-07T02:55:10.854Z,57.00
2019-02-07T02:57:37.638Z,57.10
2019-02-07T03:00:14.242Z,56.64
2019-02-07T03:02:41.045Z,56.55
2019-02-07T03:05:08.227Z,56.26
2019-02-07T03:07:35.151Z,56.21
2019-02-07T03:10:01.942Z,56.10
2019-02-07T03:12:28.725Z,56.11
2019-02-07T03:14:55.646Z,56.09
2019-02-07T03:17:22.423Z,56.02
2019-02-07T03:19:49.247Z,55.96
2019-02-07T03:22:16.169Z,55.83
2019-02-07T03:24:43.497Z,55.75
2019-02-07T03:27:10.244Z,55.70
2019-02-07T03:29:37.169Z,55.77
2019-02-07T03:32:04.258Z,55.75
2019-02-07T03:34:31.048Z,55.52
2019-02-07T03:36:57.903Z,55.49
2019-02-07T03:39:24.716Z,55.62
2019-02-07T03:41:51.515Z,55.40
2019-02-07T03:44:18.473Z,55.29
2019-02-07T03:46:45.257Z,55.37
2019-02-07T03:49:12.033Z,55.58
2019-02-07T03:51:38.988Z,55.62
2019-02-07T03:54:05.764Z,55.45
2019-02-07T03:56:32.563Z,55.15
2019-02-07T03:58:59.495Z,55.44
2019-02-07T04:01:26.715Z,55.33
2019-02-07T04:03:53.547Z,55.46
2019-02-07T04:06:20.367Z,55.39
2019-02-07T04:08:47.171Z,55.31
2019-02-07T04:11:13.948Z,55.60
2019-02-07T04:13:40.871Z,55.40
2019-02-07T04:16:15.178Z,55.35
2019-02-07T04:18:36.234Z,55.77
2019-02-07T04:21:03.092Z,55.63
2019-02-07T04:23:29.868Z,55.78
2019-02-07T04:25:56.661Z,55.84
2019-02-07T04:28:23.597Z,55.69
2019-02-07T04:30:50.401Z,55.62
2019-02-07T04:33:17.181Z,55.37
2019-02-07T04:35:44.061Z,55.66
2019-02-07T04:38:11.029Z,55.65
2019-02-07T04:40:37.826Z,55.73
2019-02-07T04:43:04.740Z,55.63
2019-02-07T04:45:31.545Z,55.66
2019-02-07T04:47:58.310Z,55.23
2019-02-07T04:50:25.244Z,55.14
2019-02-07T04:52:52.034Z,55.35
2019-02-07T04:55:19.125Z,55.65
2019-02-07T04:57:46.055Z,55.47
2019-02-07T05:00:15.517Z,55.48
2019-02-07T05:02:42.296Z,55.58
2019-02-07T05:05:09.200Z,55.29
2019-02-07T05:07:35.995Z,55.29
2019-02-07T05:10:07.593Z,55.23
2019-02-07T05:12:34.710Z,55.09
2019-02-07T05:15:01.562Z,55.10
2019-02-07T05:17:28.358Z,55.10
2019-02-07T05:19:55.283Z,55.16
2019-02-07T05:22:22.060Z,55.18
2019-02-07T05:24:48.873Z,55.22
2019-02-07T05:27:15.700Z,55.09
2019-02-07T05:29:42.492Z,54.78
2019-02-07T05:32:09.569Z,54.78
2019-02-07T05:34:36.407Z,54.91
2019-02-07T05:37:03.182Z,54.79
2019-02-07T05:39:29.975Z,54.80
2019-02-07T05:41:56.883Z,54.87
2019-02-07T05:44:23.684Z,55.05
2019-02-07T05:46:51.297Z,55.25
2019-02-07T05:49:18.209Z,55.08
2019-02-07T05:51:44.984Z,55.27
2019-02-07T05:54:11.769Z,55.24
2019-02-07T05:56:38.709Z,55.36
2019-02-07T05:59:05.492Z,55.46
2019-02-07T06:01:32.334Z,55.24
2019-02-07T06:03:59.276Z,55.23
2019-02-07T06:06:26.235Z,55.34
2019-02-07T06:08:53.808Z,55.29
2019-02-07T06:11:22.636Z,55.36
2019-02-07T06:13:49.412Z,55.34
2019-02-07T06:16:16.205Z,55.40
2019-02-07T06:18:44.414Z,55.66
2019-02-07T06:21:11.223Z,55.66
2019-02-07T06:23:38.022Z,55.38
2019-02-07T06:26:05.338Z,55.43
2019-02-07T06:28:32.125Z,55.48
2019-02-07T06:30:58.888Z,55.55
2019-02-07T06:33:25.882Z,55.33
2019-02-07T06:35:52.671Z,55.21
2019-02-07T06:38:19.452Z,55.44
2019-02-07T06:40:46.368Z,55.91
2019-02-07T06:43:13.182Z,56.67
2019-02-07T06:45:41.990Z,57.15
2019-02-07T06:48:08.914Z,56.58
2019-02-07T06:50:35.708Z,56.00
2019-02-07T06:53:02.500Z,55.99
2019-02-07T06:55:29.439Z,56.04
2019-02-07T06:57:57.720Z,56.04
2019-02-07T07:00:24.509Z,56.09
2019-02-07T07:02:51.803Z,56.11
2019-02-07T07:05:19.505Z,56.31
2019-02-07T07:07:46.296Z,56.42
2019-02-07T07:10:13.303Z,56.68
2019-02-07T07:12:40.117Z,56.66
2019-02-07T07:15:09.852Z,55.60
2019-02-07T07:17:36.706Z,56.03
2019-02-07T07:20:07.909Z,56.51
2019-02-07T07:22:34.737Z,56.67
2019-02-07T07:25:01.658Z,57.13
2019-02-07T07:27:28.442Z,57.27
2019-02-07T07:29:55.229Z,57.87
2019-02-07T07:32:22.172Z,57.89
2019-02-07T07:34:49.009Z,58.20
2019-02-07T07:37:15.799Z,58.43
2019-02-07T07:39:42.655Z,58.49
2019-02-07T07:42:09.438Z,58.08
2019-02-07T07:44:36.234Z,58.47
2019-02-07T07:47:03.133Z,58.26
2019-02-07T07:49:29.921Z,57.94
2019-02-07T07:51:56.716Z,57.68
2019-02-07T07:54:23.928Z,57.62
2019-02-07T07:56:50.717Z,57.98
2019-02-07T07:59:17.511Z,57.92
2019-02-07T08:01:44.344Z,57.74
2019-02-07T08:04:11.175Z,57.69
2019-02-07T08:06:37.959Z,57.63
2019-02-07T08:09:09.395Z,57.65
2019-02-07T08:11:36.595Z,57.52
2019-02-07T08:14:04.387Z,57.62
2019-02-07T08:16:31.283Z,57.60
2019-02-07T08:18:58.065Z,57.43
2019-02-07T08:21:24.858Z,57.70
2019-02-07T08:23:51.787Z,57.58
2019-02-07T08:26:18.574Z,57.81
2019-02-07T08:28:45.750Z,59.39
2019-02-07T08:31:12.674Z,58.54
2019-02-07T08:33:39.486Z,58.61
2019-02-07T08:36:06.263Z,58.47
2019-02-07T08:38:33.102Z,58.47
2019-02-07T08:40:59.875Z,58.55
2019-02-07T08:43:26.670Z,58.86
2019-02-07T08:45:53.559Z,59.04
2019-02-07T08:48:20.616Z,59.12
2019-02-07T08:50:47.416Z,59.65
2019-02-07T08:53:14.361Z,59.84
2019-02-07T08:55:41.144Z,60.19
2019-02-07T08:58:07.928Z,59.88
2019-02-07T09:00:34.868Z,59.87
2019-02-07T09:03:01.656Z,60.12
2019-02-07T09:05:28.890Z,59.92
2019-02-07T09:07:55.824Z,60.03
2019-02-07T09:10:22.603Z,59.96
2019-02-07T09:12:49.432Z,60.15
2019-02-07T09:15:16.356Z,59.99
2019-02-07T09:17:43.143Z,59.96
2019-02-07T09:20:10.538Z,59.95
2019-02-07T09:22:37.464Z,60.08
2019-02-07T09:25:05.357Z,59.86
2019-02-07T09:27:32.148Z,60.37
2019-02-07T09:29:58.979Z,60.21
2019-02-07T09:32:25.767Z,59.97
2019-02-07T09:34:52.568Z,60.22
2019-02-07T09:37:19.710Z,60.42
2019-02-07T09:39:46.514Z,61.12
2019-02-07T09:42:13.699Z,61.32
2019-02-07T09:44:40.650Z,61.23
2019-02-07T09:47:07.417Z,61.54
2019-02-07T09:49:34.197Z,60.98
2019-02-07T09:52:01.138Z,61.10
2019-02-07T09:54:27.930Z,61.19
2019-02-07T09:56:54.722Z,61.38
2019-02-07T09:59:21.635Z,61.23
2019-02-07T10:01:48.431Z,61.35
2019-02-07T10:04:18.783Z,61.46
2019-02-07T10:06:45.633Z,61.26
2019-02-07T10:09:12.420Z,61.16
2019-02-07T10:11:39.211Z,61.56
2019-02-07T10:14:06.117Z,62.07
2019-02-07T10:16:32.977Z,61.71
2019-02-07T10:18:59.977Z,61.66
2019-02-07T10:21:26.824Z,61.74
2019-02-07T10:23:53.618Z,61.43
2019-02-07T10:26:20.411Z,61.61
2019-02-07T10:28:47.354Z,61.72
2019-02-07T10:31:14.137Z,60.46
2019-02-07T10:33:40.926Z,60.36
2019-02-07T10:36:07.849Z,61.04
2019-02-07T10:38:34.622Z,61.40
2019-02-07T10:41:04.122Z,61.77
2019-02-07T10:43:31.040Z,61.36
2019-02-07T10:45:57.851Z,61.50
2019-02-07T10:48:24.641Z,61.60
2019-02-07T10:50:51.599Z,61.61
2019-02-07T10:53:18.381Z,61.10
2019-02-07T10:55:45.267Z,60.23
2019-02-07T10:58:12.209Z,61.16
2019-02-07T11:00:38.991Z,61.75
2019-02-07T11:03:05.765Z,61.78
2019-02-07T11:05:32.690Z,61.39
2019-02-07T11:07:59.492Z,61.97
2019-02-07T11:10:26.266Z,62.00
2019-02-07T11:12:53.388Z,62.06
2019-02-07T11:15:20.225Z,62.57
2019-02-07T11:17:47.014Z,61.99
2019-02-07T11:20:15.863Z,61.41
2019-02-07T11:22:42.671Z,61.52
2019-02-07T11:25:09.452Z,62.30
2019-02-07T11:27:36.399Z,61.58
2019-02-07T11:30:11.894Z,60.20
2019-02-07T11:32:38.827Z,60.15
2019-02-07T11:35:05.624Z,60.77
2019-02-07T11:37:33.083Z,61.19
2019-02-07T11:40:00.028Z,60.80
2019-02-07T11:42:26.826Z,60.00
2019-02-07T11:44:53.833Z,59.12
2019-02-07T11:47:20.767Z,59.41
2019-02-07T11:49:47.544Z,59.05
2019-02-07T11:52:14.327Z,59.91
2019-02-07T11:54:41.274Z,60.83
2019-02-07T11:57:08.065Z,58.98
2019-02-07T11:59:34.845Z,59.04
2019-02-07T12:02:08.736Z,59.24
2019-02-07T12:04:30.277Z,59.78
2019-02-07T12:06:57.124Z,58.93
2019-02-07T12:09:24.151Z,57.59
2019-02-07T12:11:51.030Z,55.96
2019-02-07T12:14:17.830Z,54.98
2019-02-07T12:16:44.761Z,55.45
2019-02-07T12:19:18.202Z,55.44
2019-02-07T12:21:40.334Z,55.51
2019-02-07T12:24:07.270Z,55.67
2019-02-07T12:26:34.071Z,55.67
2019-02-07T12:29:00.904Z,55.27
2019-02-07T12:31:27.835Z,55.72
2019-02-07T12:33:56.272Z,55.42
2019-02-07T12:36:23.215Z,55.24
2019-02-07T12:38:50.106Z,54.23
2019-02-07T12:41:16.899Z,52.05
2019-02-07T12:43:43.709Z,52.84
2019-02-07T12:46:10.629Z,53.16
2019-02-07T12:48:37.428Z,53.15
2019-02-07T12:51:05.326Z,52.31
2019-02-07T12:53:32.205Z,50.68
2019-02-07T12:55:59.651Z,50.05
2019-02-07T12:58:26.440Z,49.46
2019-02-07T13:00:53.599Z,48.80
2019-02-07T13:03:20.399Z,48.17
2019-02-07T13:05:47.184Z,47.83
2019-02-07T13:08:14.180Z,47.68
2019-02-07T13:10:41.003Z,45.98
2019-02-07T13:13:07.768Z,44.74
2019-02-07T13:15:34.993Z,43.67
2019-02-07T13:18:01.812Z,44.08
2019-02-07T13:20:28.589Z,45.70
2019-02-07T13:22:55.534Z,47.44
2019-02-07T13:25:22.318Z,49.35
2019-02-07T13:27:49.179Z,50.76
2019-02-07T13:30:19.335Z,51.99
2019-02-07T13:32:45.569Z,52.92
2019-02-07T13:35:12.491Z,54.08
2019-02-07T13:37:39.466Z,55.26
2019-02-07T13:40:09.712Z,55.86
2019-02-07T13:42:37.712Z,56.20
2019-02-07T13:45:10.527Z,56.77
2019-02-07T14:58:00.872Z,38.46
2019-02-07T15:00:27.839Z,38.71
2019-02-07T15:03:22.044Z,41.01
2019-02-07T15:06:27.350Z,48.07
2019-02-07T15:08:54.322Z,47.82
2019-02-07T15:11:21.185Z,48.73
2019-02-07T15:13:48.271Z,50.46
2019-02-07T15:16:15.188Z,52.05
2019-02-07T15:18:41.995Z,53.72
2019-02-07T15:21:08.851Z,55.04
2019-02-07T15:23:35.782Z,55.98
2019-02-07T15:26:02.588Z,57.07
2019-02-07T15:28:29.693Z,57.98
2019-02-07T15:30:56.674Z,58.89
2019-02-07T15:33:23.479Z,59.51
2019-02-07T15:35:50.252Z,60.00
2019-02-07T15:38:17.155Z,60.50
2019-02-07T15:40:43.952Z,61.03
2019-02-07T15:43:10.736Z,61.39
2019-02-07T15:45:37.697Z,61.86
2019-02-07T15:48:04.474Z,62.02
2019-02-07T15:50:37.738Z,62.40
2019-02-07T15:53:00.039Z,62.55
2019-02-07T15:55:26.823Z,62.65
2019-02-07T15:57:53.832Z,62.84
2019-02-07T16:00:23.506Z,63.22
2019-02-07T16:02:50.291Z,63.51
2019-02-07T16:05:17.094Z,63.70
2019-02-07T16:07:44.025Z,63.55
2019-02-07T16:10:15.509Z,63.59
2019-02-07T16:12:42.344Z,63.52
2019-02-07T16:15:11.072Z,63.85
2019-02-07T16:17:37.883Z,63.91
2019-02-07T16:20:15.746Z,63.82
2019-02-07T16:22:42.927Z,63.71
2019-02-07T16:25:12.855Z,63.77
2019-02-07T16:27:39.788Z,63.97
2019-02-07T16:30:18.520Z,64.57
2019-02-07T16:32:45.444Z,64.70
2019-02-07T16:35:15.232Z,64.79
2019-02-07T16:37:42.263Z,64.60
2019-02-07T16:40:12.185Z,64.60
2019-02-07T16:42:38.963Z,64.68
2019-02-07T16:45:13.384Z,64.66
2019-02-07T16:47:40.320Z,64.65
2019-02-07T16:50:12.550Z,64.65
2019-02-07T16:52:39.398Z,64.49
2019-02-07T16:55:09.520Z,64.71
2019-02-07T16:57:36.305Z,64.77
2019-02-07T17:00:17.098Z,64.98
2019-02-07T17:02:45.265Z,65.23
2019-02-07T17:05:13.486Z,65.29
2019-02-07T17:07:40.670Z,65.25
2019-02-07T17:10:17.927Z,65.34
2019-02-07T17:12:44.927Z,65.25
2019-02-07T17:15:18.127Z,65.32
2019-02-07T17:17:48.671Z,65.30
2019-02-07T17:20:22.911Z,65.39
2019-02-07T17:22:50.864Z,65.47
2019-02-07T17:25:17.617Z,65.51
2019-02-07T17:27:44.684Z,65.45
2019-02-07T17:30:19.609Z,65.12
2019-02-07T17:32:46.840Z,65.08
2019-02-07T17:35:14.520Z,65.14
2019-02-07T17:37:41.311Z,65.30
2019-02-07T17:40:15.488Z,65.41
2019-02-07T17:42:42.258Z,65.29
2019-02-07T17:45:15.727Z,65.12
2019-02-07T17:47:42.852Z,65.10
2019-02-07T17:50:23.221Z,65.22
2019-02-07T17:52:50.489Z,65.23
2019-02-07T17:55:23.925Z,65.35
2019-02-07T17:57:50.735Z,65.48
2019-02-07T18:00:30.968Z,65.46
2019-02-07T18:02:57.770Z,65.53
2019-02-07T18:05:26.256Z,65.31
2019-02-07T18:07:54.513Z,65.11
2019-02-07T18:10:21.307Z,65.24
2019-02-07T18:12:50.864Z,65.53
2019-02-07T18:15:17.767Z,65.61
2019-02-07T18:17:44.950Z,65.84
2019-02-07T18:20:22.492Z,65.94
2019-02-07T18:22:51.801Z,65.72
2019-02-07T18:25:18.564Z,65.78
2019-02-07T18:27:45.531Z,65.82
2019-02-07T18:30:20.981Z,65.74
2019-02-07T18:32:47.937Z,65.74
2019-02-07T18:35:16.060Z,65.78
2019-02-07T18:37:42.865Z,65.83
2019-02-07T18:40:19.794Z,65.87
2019-02-07T18:42:46.590Z,66.48
2019-02-07T18:45:15.974Z,66.37
2019-02-07T18:47:42.812Z,66.35
2019-02-07T18:50:23.720Z,66.37
2019-02-07T18:52:50.653Z,66.32
2019-02-07T18:55:17.468Z,66.39
2019-02-07T18:57:44.289Z,66.32
2019-02-07T19:00:26.889Z,66.29
2019-02-07T19:02:53.693Z,66.22
2019-02-07T19:05:22.014Z,66.48
2019-02-07T19:07:48.963Z,66.55
2019-02-07T19:10:19.307Z,66.65
2019-02-07T19:12:46.176Z,66.67
2019-02-07T19:15:37.298Z,66.78
2019-02-07T19:18:04.255Z,66.83
2019-02-07T19:20:31.140Z,66.96
2019-02-07T19:22:58.136Z,66.73
2019-02-07T19:25:25.002Z,66.78
2019-02-07T19:27:52.079Z,66.86
2019-02-07T19:30:26.543Z,66.79
2019-02-07T19:32:54.099Z,66.89
2019-02-07T19:35:20.925Z,66.89
2019-02-07T19:37:47.853Z,66.86
2019-02-07T19:40:19.015Z,66.85
2019-02-07T19:42:46.103Z,66.73
2019-02-07T19:45:22.409Z,66.71
2019-02-07T19:47:49.288Z,66.41
2019-02-07T19:50:25.001Z,66.50
2019-02-07T19:52:51.874Z,66.45
2019-02-07T19:55:22.646Z,66.36
2019-02-07T19:57:49.878Z,66.26
2019-02-07T20:00:20.250Z,66.25
2019-02-07T20:02:47.223Z,66.18
2019-02-07T20:05:14.178Z,66.17
2019-02-07T20:07:41.045Z,66.28
2019-02-07T20:10:28.885Z,66.30
2019-02-07T20:12:56.598Z,66.29
2019-02-07T20:15:37.045Z,66.52
2019-02-07T20:18:06.235Z,66.43
2019-02-07T20:20:33.085Z,66.30
2019-02-07T20:22:59.993Z,66.24
2019-02-07T20:25:26.911Z,66.25
2019-02-07T20:27:54.109Z,66.26
2019-02-07T20:30:24.414Z,66.39
2019-02-07T20:32:51.202Z,66.46
2019-02-07T20:35:18.007Z,66.65
2019-02-07T20:37:44.877Z,66.55
2019-02-07T20:40:17.081Z,66.41
2019-02-07T20:42:44.477Z,66.30
2019-02-07T20:45:12.332Z,66.17
2019-02-07T20:47:43.167Z,66.19
2019-02-07T20:50:20.349Z,66.22
2019-02-07T20:52:51.816Z,66.14
2019-02-07T20:55:23.769Z,66.16
2019-02-07T20:57:51.093Z,66.11
2019-02-07T21:00:23.553Z,66.14
2019-02-07T21:02:53.390Z,66.13
2019-02-07T21:05:20.188Z,66.13
2019-02-07T21:07:46.968Z,66.31
2019-02-07T21:10:21.293Z,66.40
2019-02-07T21:12:48.092Z,66.49
2019-02-07T21:15:18.870Z,66.41
2019-02-07T21:17:45.571Z,66.73
2019-02-07T21:20:17.474Z,67.02
2019-02-07T21:22:44.277Z,67.31
2019-02-07T21:25:16.524Z,67.29
2019-02-07T21:27:43.316Z,67.16
2019-02-07T21:30:15.218Z,67.31
2019-02-07T21:32:42.464Z,67.15
2019-02-07T21:35:16.732Z,67.08
2019-02-07T21:37:43.590Z,67.02
2019-02-07T21:40:16.923Z,67.23
2019-02-07T21:42:43.720Z,67.29
2019-02-07T21:45:13.967Z,67.27
2019-02-07T21:47:40.763Z,67.17
2019-02-07T21:50:12.454Z,67.07
2019-02-07T21:52:41.890Z,67.02
2019-02-07T21:55:11.896Z,67.17
2019-02-07T21:57:38.680Z,67.28
2019-02-07T22:00:13.142Z,67.25
2019-02-07T22:02:39.933Z,67.15
2019-02-07T22:05:07.216Z,67.07
2019-02-07T22:07:34.066Z,66.99
2019-02-07T22:10:00.855Z,66.95
2019-02-07T22:12:27.635Z,67.15
2019-02-07T22:14:54.481Z,67.32
2019-02-07T22:17:21.277Z,67.45
2019-02-07T22:19:48.094Z,67.38
2019-02-07T22:22:14.975Z,67.18
2019-02-07T22:24:41.949Z,67.04
2019-02-07T22:27:08.739Z,67.12
2019-02-07T22:29:35.600Z,67.21
2019-02-07T22:32:02.400Z,67.10
2019-02-07T22:34:29.192Z,67.17
2019-02-07T22:36:56.059Z,67.34
2019-02-07T22:39:22.839Z,67.38
2019-02-07T22:41:49.621Z,67.33
2019-02-07T22:44:16.773Z,67.36
2019-02-07T22:46:43.547Z,67.35
2019-02-07T22:49:10.314Z,67.48
2019-02-07T22:51:37.171Z,67.42
2019-02-07T22:54:03.950Z,67.42
2019-02-07T22:56:30.722Z,67.33
2019-02-07T23:01:42.667Z,67.42
2019-02-07T23:04:09.515Z,67.50
2019-02-07T23:06:36.306Z,67.54
2019-02-07T23:09:05.515Z,67.56
2019-02-07T23:11:32.357Z,67.50
2019-02-07T23:13:59.141Z,67.16
2019-02-07T23:16:26.342Z,67.12
2019-02-07T23:18:54.975Z,67.15
2019-02-07T23:21:21.910Z,67.30
2019-02-07T23:23:48.687Z,67.33
2019-02-07T23:26:15.532Z,67.30
2019-02-07T23:28:42.321Z,67.37
2019-02-07T23:31:09.119Z,67.30
2019-02-07T23:33:35.960Z,66.89
2019-02-07T23:36:03.145Z,66.79
2019-02-07T23:38:29.951Z,66.71
2019-02-07T23:40:56.784Z,66.74
2019-02-07T23:43:23.574Z,66.80
2019-02-07T23:45:50.359Z,66.78
2019-02-07T23:48:17.195Z,66.75
2019-02-07T23:50:43.970Z,66.51
2019-02-07T23:53:14.696Z,66.42
2019-02-07T23:55:39.396Z,66.37
2019-02-07T23:58:06.179Z,66.30
